Sun Valley, CA

4:49 PM PDT on April 21, 2015 (GMT -0700)
North Hollywood, CA | | Change Station
CLOSE
Current Station
Personal Weather Station
Location: North Hollywood, CA
Elevation: 679 ft
Nearby Weather Stations

Elev 679 ft 34.18 °N, 118.37 °W | Updated 1 second ago

Mostly Cloudy
Mostly Cloudy
70.2 °F
Feels Like 77 °F
N
9.8
Wind Variable Wind from SW
Gusts 9.8 mph

Today
High -- | Low -- °F
--% Chance of Precip.
Yesterday
High -- | Low -- °F
Precip. -- in
6:15 AM 7:29 PM
Waxing Crescent, 13% visible
Pressure 29.86 in
Visibility 10.0 miles
Clouds Mostly Cloudy 4200 ft
Heat Index 77 °F
Dew Point 41 °F
Humidity 35%
Rainfall 0.00 in
Snow Depth Not available.
UV 3 out of 12
Pollen 6.70 out of 12
Air Quality Not available.
Flu Activity Sporadic
METAR KBUR 212253Z 18007KT 10SM BKN042 18/07 A2988 RMK AO2 SLP109 T01830072

More Conditions Fewer Conditions

Pressure 29.86 in
Visibility 10.0 miles
Clouds Mostly Cloudy 4200 ft
Heat Index 77 °F
Dew Point 41 °F
Humidity 35%
Rainfall 0.00 in
Snow Depth Not available.
UV 3 out of 12
Pollen 6.70 out of 12
Air Quality Not available.
Flu Activity Sporadic
METAR KBUR 212253Z 18007KT 10SM BKN042 18/07 A2988 RMK AO2 SLP109 T01830072

More Conditions Fewer Conditions

10-Day Weather Forecast

Almanac

Astronomy

Apr. 21, 2015 Rise Set
Actual Time
Civil Twilight
Nautical Twilight
Astronomical Twilight
Moon
Length of Visible Light
Length of Day
Tomorrow will be .
, % of the Moon is Illuminated

Today's Extremes

State Highs State Lows

Community

WunderPhotos

Upload Photos

1,815,583 photos uploaded!

WunderBlogs® & News

Nearby

Air Quality

  Air Quality AQ Index Pollutant
Not available.

Snow Depth

Station Depth Elevation

Earthquake Activity

City Distance Mag. Time & Date
Minimum magnitude displayed is 2.5.

Coastal Water Temperatures

Place Temperature

Stations

Nearby Weather Stations

Station Location Temp. Windchill Dew Point Humidity Wind Precip. Elev Updated Type